Time,TemperatureF,DewpointF,PressureIn,WindDirection,WindDirectionDegrees,WindSpeedMPH,WindSpeedGustMPH,Humidity,HourlyPrecipIn,Conditions,Clouds,dailyrainin,SolarRadiationWatts/m^2,SoftwareType,DateUTC
2013-09-11 00:02:00,59.0,59.0,-100.00,NE,45,0.0,0.0,99,0.00,,,0.08,0.000000,,2013-09-11 05:02:00,
2013-09-11 00:23:00,59.0,59.0,-100.00,NE,45,0.0,0.0,99,0.00,,,0.08,0.000000,,2013-09-11 05:23:00,
2013-09-11 00:34:00,59.0,59.0,-100.00,NE,45,0.0,0.0,99,0.00,,,0.08,0.000000,,2013-09-11 05:34:00,
2013-09-11 00:43:00,59.0,59.0,-100.00,NE,45,0.0,0.0,99,0.00,,,0.08,0.000000,,2013-09-11 05:43:00,
2013-09-11 00:53:00,59.0,59.0,-100.00,NE,45,0.0,0.0,99,0.00,,,0.08,0.000000,,2013-09-11 05:53:00,
2013-09-11 01:22:00,57.0,57.0,-100.00,East,83,0.0,0.0,99,0.00,,,0.08,0.000000,,2013-09-11 06:22:00,
2013-09-11 01:33:00,57.0,57.0,-100.00,East,83,0.0,0.0,99,0.00,,,0.08,0.000000,,2013-09-11 06:33:00,
2013-09-11 01:42:00,57.0,57.0,-100.00,East,83,0.0,0.0,99,0.00,,,0.08,0.000000,,2013-09-11 06:42:00,
2013-09-11 01:52:00,57.0,57.0,-100.00,East,83,0.0,0.0,99,0.00,,,0.08,0.000000,,2013-09-11 06:52:00,
2013-09-11 02:01:00,57.0,57.0,-100.00,East,83,0.0,0.0,99,0.00,,,0.08,0.000000,,2013-09-11 07:01:00,
2013-09-11 02:02:00,57.0,57.0,-100.00,ESE,117,0.0,0.0,99,0.00,,,0.08,0.000000,,2013-09-11 07:02:00,
2013-09-11 02:24:00,57.0,57.0,-100.00,ESE,117,0.0,0.0,99,0.00,,,0.08,0.000000,,2013-09-11 07:24:00,
2013-09-11 02:32:00,57.0,57.0,-100.00,ESE,117,0.0,0.0,99,0.00,,,0.08,0.000000,,2013-09-11 07:32:00,
2013-09-11 02:42:00,57.0,57.0,-100.00,ESE,117,0.0,0.0,99,0.00,,,0.08,0.000000,,2013-09-11 07:42:00,
2013-09-11 02:52:00,57.0,57.0,-100.00,ESE,117,0.0,0.0,99,0.00,,,0.08,0.000000,,2013-09-11 07:52:00,
2013-09-11 03:02:00,56.0,56.0,-100.00,SE,127,0.0,2.0,100,0.00,,,0.08,0.000000,,2013-09-11 08:02:00,
2013-09-11 03:22:00,56.0,56.0,-100.00,SE,127,0.0,2.0,100,0.00,,,0.08,0.000000,,2013-09-11 08:22:00,
2013-09-11 03:32:00,56.0,56.0,-100.00,SE,127,0.0,2.0,100,0.00,,,0.08,0.000000,,2013-09-11 08:32:00,
2013-09-11 03:42:00,56.0,56.0,-100.00,SE,127,0.0,2.0,100,0.00,,,0.08,0.000000,,2013-09-11 08:42:00,
2013-09-11 03:52:00,56.0,56.0,-100.00,SE,127,0.0,2.0,100,0.00,,,0.08,0.000000,,2013-09-11 08:52:00,
2013-09-11 04:02:00,56.0,56.0,-100.00,SSE,153,1.0,3.0,100,0.00,,,0.08,0.000000,,2013-09-11 09:02:00,
2013-09-11 04:22:00,56.0,56.0,-100.00,SSE,153,1.0,3.0,100,0.00,,,0.08,0.000000,,2013-09-11 09:22:00,
2013-09-11 04:33:00,56.0,56.0,-100.00,SSE,153,1.0,3.0,100,0.00,,,0.08,0.000000,,2013-09-11 09:33:00,
2013-09-11 04:43:00,56.0,56.0,-100.00,SSE,153,1.0,3.0,100,0.00,,,0.08,0.000000,,2013-09-11 09:43:00,
2013-09-11 04:53:00,56.0,56.0,-100.00,SSE,153,1.0,3.0,100,0.00,,,0.08,0.000000,,2013-09-11 09:53:00,
2013-09-11 05:02:00,56.0,56.0,-100.00,East,94,0.0,3.0,100,0.00,,,0.08,0.000000,,2013-09-11 10:02:00,
2013-09-11 05:23:00,56.0,56.0,-100.00,East,94,0.0,3.0,100,0.00,,,0.08,0.000000,,2013-09-11 10:23:00,
2013-09-11 05:33:00,56.0,56.0,-100.00,East,94,0.0,3.0,100,0.00,,,0.08,0.000000,,2013-09-11 10:33:00,
2013-09-11 05:43:00,56.0,56.0,-100.00,East,94,0.0,3.0,100,0.00,,,0.08,0.000000,,2013-09-11 10:43:00,
2013-09-11 05:53:00,56.0,56.0,-100.00,East,94,0.0,3.0,100,0.00,,,0.08,0.000000,,2013-09-11 10:53:00,
2013-09-11 06:22:00,53.0,53.0,-100.00,NE,48,0.0,0.0,100,0.00,,,-99.99,0.000000,,2013-09-11 11:22:00,
2013-09-11 06:33:00,53.0,53.0,-100.00,NE,48,0.0,0.0,100,0.00,,,-99.99,0.000000,,2013-09-11 11:33:00,
2013-09-11 06:42:00,53.0,53.0,-100.00,NE,48,0.0,0.0,100,0.00,,,-99.99,0.000000,,2013-09-11 11:42:00,
2013-09-11 06:52:00,53.0,53.0,-100.00,NE,48,0.0,0.0,100,0.00,,,-99.99,0.000000,,2013-09-11 11:52:00,
2013-09-11 07:01:00,53.0,53.0,-100.00,NE,48,0.0,0.0,100,0.00,,,-99.99,0.000000,,2013-09-11 12:01:00,
2013-09-11 07:02:00,57.0,57.0,-100.00,SE,139,1.0,2.0,100,0.00,,,-99.99,3.000000,,2013-09-11 12:02:00,
2013-09-11 07:42:00,57.0,57.0,-100.00,SE,139,1.0,2.0,100,0.00,,,-99.99,3.000000,,2013-09-11 12:42:00,
2013-09-11 07:52:00,57.0,57.0,-100.00,SE,139,1.0,2.0,100,0.00,,,-99.99,3.000000,,2013-09-11 12:52:00,
2013-09-11 08:02:00,60.0,60.0,-100.00,SSW,199,3.0,6.0,100,0.01,,,-99.99,66.000000,,2013-09-11 13:02:00,
2013-09-11 08:42:00,60.0,60.0,-100.00,SSW,199,3.0,6.0,100,0.01,,,-99.99,66.000000,,2013-09-11 13:42:00,
2013-09-11 08:52:00,60.0,60.0,-100.00,SSW,199,3.0,6.0,100,0.01,,,-99.99,66.000000,,2013-09-11 13:52:00,
2013-09-11 09:02:00,65.0,64.0,-100.00,SSW,208,4.0,7.0,98,0.00,,,0.01,274.000000,,2013-09-11 14:02:00,
2013-09-11 09:22:00,65.0,64.0,-100.00,SSW,208,4.0,7.0,98,0.00,,,0.01,274.000000,,2013-09-11 14:22:00,
2013-09-11 09:32:00,65.0,64.0,-100.00,SSW,208,4.0,7.0,98,0.00,,,0.01,274.000000,,2013-09-11 14:32:00,
2013-09-11 09:42:00,65.0,64.0,-100.00,SSW,208,4.0,7.0,98,0.00,,,0.01,274.000000,,2013-09-11 14:42:00,
2013-09-11 09:52:00,65.0,64.0,-100.00,SSW,208,4.0,7.0,98,0.00,,,0.01,274.000000,,2013-09-11 14:52:00,
2013-09-11 10:02:00,71.0,63.0,-100.00,WSW,244,5.0,12.0,75,0.00,,,0.01,468.000000,,2013-09-11 15:02:00,
2013-09-11 10:43:00,71.0,63.0,-100.00,WSW,244,5.0,12.0,75,0.00,,,0.01,468.000000,,2013-09-11 15:43:00,
2013-09-11 10:54:00,71.0,63.0,-100.00,WSW,244,5.0,12.0,75,0.00,,,0.01,468.000000,,2013-09-11 15:54:00,
2013-09-11 11:02:00,74.0,62.0,-100.00,WSW,243,6.0,13.0,66,0.00,,,0.01,620.000000,,2013-09-11 16:02:00,
2013-09-11 11:23:00,74.0,62.0,-100.00,WSW,243,6.0,13.0,66,0.00,,,0.01,620.000000,,2013-09-11 16:23:00,
2013-09-11 11:33:00,74.0,62.0,-100.00,WSW,243,6.0,13.0,66,0.00,,,0.01,620.000000,,2013-09-11 16:33:00,
2013-09-11 11:43:00,74.0,62.0,-100.00,WSW,243,6.0,13.0,66,0.00,,,0.01,620.000000,,2013-09-11 16:43:00,
2013-09-11 11:53:00,74.0,62.0,-100.00,WSW,243,6.0,13.0,66,0.00,,,0.01,620.000000,,2013-09-11 16:53:00,
2013-09-11 12:02:00,76.0,61.0,-100.00,SW,234,5.0,14.0,60,0.00,,,0.01,718.000000,,2013-09-11 17:02:00,
2013-09-11 12:43:00,76.0,61.0,-100.00,SW,234,5.0,14.0,60,0.00,,,0.01,718.000000,,2013-09-11 17:43:00,
2013-09-11 12:52:00,76.0,61.0,-100.00,SW,234,5.0,14.0,60,0.00,,,0.01,718.000000,,2013-09-11 17:52:00,
2013-09-11 13:22:00,73.0,61.0,-100.00,WNW,295,6.0,20.0,65,0.00,,,0.01,617.000000,,2013-09-11 18:22:00,
2013-09-11 13:32:00,73.0,61.0,-100.00,WNW,295,6.0,20.0,65,0.00,,,0.01,617.000000,,2013-09-11 18:32:00,
2013-09-11 13:42:00,73.0,61.0,-100.00,WNW,295,6.0,20.0,65,0.00,,,0.01,617.000000,,2013-09-11 18:42:00,
2013-09-11 13:52:00,73.0,61.0,-100.00,WNW,295,6.0,20.0,65,0.00,,,0.01,617.000000,,2013-09-11 18:52:00,
2013-09-11 14:01:00,73.0,61.0,-100.00,WNW,295,6.0,20.0,65,0.00,,,0.01,617.000000,,2013-09-11 19:01:00,
2013-09-11 14:02:00,75.0,59.0,-100.00,NW,309,7.0,17.0,57,0.00,,,0.01,743.000000,,2013-09-11 19:02:00,
2013-09-11 14:22:00,75.0,59.0,-100.00,NW,309,7.0,17.0,57,0.00,,,0.01,743.000000,,2013-09-11 19:22:00,
2013-09-11 14:32:00,75.0,59.0,-100.00,NW,309,7.0,17.0,57,0.00,,,0.01,743.000000,,2013-09-11 19:32:00,
2013-09-11 14:42:00,75.0,59.0,-100.00,NW,309,7.0,17.0,57,0.00,,,0.01,743.000000,,2013-09-11 19:42:00,
2013-09-11 14:53:00,75.0,59.0,-100.00,NW,309,7.0,17.0,57,0.00,,,0.01,743.000000,,2013-09-11 19:53:00,
2013-09-11 15:02:00,75.0,56.0,-100.00,NW,316,7.0,15.0,52,0.00,,,0.01,633.000000,,2013-09-11 20:02:00,
2013-09-11 15:22:00,75.0,56.0,-100.00,NW,316,7.0,15.0,52,0.00,,,0.01,633.000000,,2013-09-11 20:22:00,
2013-09-11 15:32:00,75.0,56.0,-100.00,NW,316,7.0,15.0,52,0.00,,,0.01,633.000000,,2013-09-11 20:32:00,
2013-09-11 15:42:00,75.0,56.0,-100.00,NW,316,7.0,15.0,52,0.00,,,0.01,633.000000,,2013-09-11 20:42:00,
2013-09-11 15:52:00,75.0,56.0,-100.00,NW,316,7.0,15.0,52,0.00,,,0.01,633.000000,,2013-09-11 20:52:00,
2013-09-11 16:02:00,75.0,53.0,-100.00,NW,326,7.0,16.0,46,0.00,,,0.01,704.000000,,2013-09-11 21:02:00,
2013-09-11 16:44:00,75.0,53.0,-100.00,NW,326,7.0,16.0,46,0.00,,,0.01,704.000000,,2013-09-11 21:44:00,
2013-09-11 16:54:00,75.0,53.0,-100.00,NW,326,7.0,16.0,46,0.00,,,0.01,704.000000,,2013-09-11 21:54:00,
2013-09-11 17:02:00,73.0,53.0,-100.00,NW,318,6.0,13.0,49,0.00,,,0.01,478.000000,,2013-09-11 22:02:00,
2013-09-11 17:43:00,73.0,53.0,-100.00,NW,318,6.0,13.0,49,0.00,,,0.01,478.000000,,2013-09-11 22:43:00,
2013-09-11 17:54:00,73.0,53.0,-100.00,NW,318,6.0,13.0,49,0.00,,,0.01,478.000000,,2013-09-11 22:54:00,
2013-09-11 18:22:00,72.0,52.0,-100.00,NW,321,5.0,10.0,49,0.00,,,0.01,310.000000,,2013-09-11 23:22:00,
2013-09-11 18:34:00,72.0,52.0,-100.00,NW,321,5.0,10.0,49,0.00,,,0.01,310.000000,,2013-09-11 23:34:00,
2013-09-11 18:42:00,72.0,52.0,-100.00,NW,321,5.0,10.0,49,0.00,,,0.01,310.000000,,2013-09-11 23:42:00,
2013-09-11 18:53:00,72.0,52.0,-100.00,NW,321,5.0,10.0,49,0.00,,,0.01,310.000000,,2013-09-11 23:53:00,
2013-09-11 19:01:00,72.0,52.0,-100.00,NW,321,5.0,10.0,49,0.00,,,0.01,310.000000,,2013-09-12 00:01:00,
2013-09-11 20:02:00,55.0,54.0,-100.00,NE,34,0.0,0.0,97,0.00,,,0.01,4.000000,,2013-09-12 01:02:00,
2013-09-11 20:52:00,55.0,54.0,-100.00,NE,34,0.0,0.0,97,0.00,,,0.01,4.000000,,2013-09-12 01:52:00,
2013-09-11 21:02:00,55.0,55.0,-100.00,NNE,18,0.0,2.0,99,0.00,,,0.01,0.000000,,2013-09-12 02:02:00,
2013-09-11 21:52:00,55.0,55.0,-100.00,NNE,18,0.0,2.0,99,0.00,,,0.01,0.000000,,2013-09-12 02:52:00,
2013-09-11 22:02:00,58.0,56.0,-100.00,NW,321,6.0,19.0,94,0.04,,,0.05,0.000000,,2013-09-12 03:02:00,
2013-09-11 22:45:00,58.0,56.0,-100.00,NW,321,6.0,19.0,94,0.04,,,0.05,0.000000,,2013-09-12 03:45:00,
2013-09-11 22:55:00,58.0,56.0,-100.00,NW,321,6.0,19.0,94,0.04,,,0.05,0.000000,,2013-09-12 03:55:00,
2013-09-11 23:02:00,57.0,56.0,-100.00,ESE,104,1.0,8.0,97,0.01,,,0.06,0.000000,,2013-09-12 04:02:00,
2013-09-11 23:24:00,57.0,56.0,-100.00,ESE,104,1.0,8.0,97,0.01,,,0.06,0.000000,,2013-09-12 04:24:00,
2013-09-11 23:34:00,57.0,56.0,-100.00,ESE,104,1.0,8.0,97,0.01,,,0.06,0.000000,,2013-09-12 04:34:00,
2013-09-11 23:44:00,57.0,56.0,-100.00,ESE,104,1.0,8.0,97,0.01,,,0.06,0.000000,,2013-09-12 04:44:00,
2013-09-11 23:54:00,57.0,56.0,-100.00,ESE,104,1.0,8.0,97,0.01,,,0.06,0.000000,,2013-09-12 04:54:00,